sensor_id;sensor_type;location;lat;lon;timestamp;P1;durP1;ratioP1;P2;durP2;ratioP2
21527;SDS011;10925;49.102;-0.370;2022-10-31T00:03:44;20.58;;;7.50;;
21527;SDS011;10925;49.102;-0.370;2022-10-31T00:06:11;20.42;;;7.47;;
21527;SDS011;10925;49.102;-0.370;2022-10-31T00:08:36;22.27;;;7.68;;
21527;SDS011;10925;49.102;-0.370;2022-10-31T00:11:02;24.13;;;7.72;;
21527;SDS011;10925;49.102;-0.370;2022-10-31T00:13:27;14.32;;;7.43;;
21527;SDS011;10925;49.102;-0.370;2022-10-31T00:15:54;17.48;;;7.40;;
21527;SDS011;10925;49.102;-0.370;2022-10-31T00:18:20;16.15;;;7.25;;
21527;SDS011;10925;49.102;-0.370;2022-10-31T00:20:47;17.90;;;7.72;;
21527;SDS011;10925;49.102;-0.370;2022-10-31T00:23:12;24.75;;;7.65;;
21527;SDS011;10925;49.102;-0.370;2022-10-31T00:25:38;23.33;;;8.00;;
21527;SDS011;10925;49.102;-0.370;2022-10-31T00:28:06;16.58;;;7.78;;
21527;SDS011;10925;49.102;-0.370;2022-10-31T00:30:33;20.20;;;7.90;;
21527;SDS011;10925;49.102;-0.370;2022-10-31T00:33:00;20.65;;;8.15;;
21527;SDS011;10925;49.102;-0.370;2022-10-31T00:35:30;17.48;;;8.20;;
21527;SDS011;10925;49.102;-0.370;2022-10-31T00:37:57;19.73;;;8.30;;
21527;SDS011;10925;49.102;-0.370;2022-10-31T00:40:23;19.05;;;8.32;;
21527;SDS011;10925;49.102;-0.370;2022-10-31T00:42:50;22.20;;;8.57;;
21527;SDS011;10925;49.102;-0.370;2022-10-31T00:45:16;22.88;;;8.48;;
21527;SDS011;10925;49.102;-0.370;2022-10-31T00:47:43;25.70;;;8.52;;
21527;SDS011;10925;49.102;-0.370;2022-10-31T00:50:10;23.52;;;8.00;;
21527;SDS011;10925;49.102;-0.370;2022-10-31T00:52:37;20.25;;;8.00;;
21527;SDS011;10925;49.102;-0.370;2022-10-31T00:55:03;23.10;;;7.75;;
21527;SDS011;10925;49.102;-0.370;2022-10-31T00:57:30;26.35;;;8.05;;
21527;SDS011;10925;49.102;-0.370;2022-10-31T00:59:56;24.88;;;8.50;;
21527;SDS011;10925;49.102;-0.370;2022-10-31T01:02:23;20.80;;;8.02;;
21527;SDS011;10925;49.102;-0.370;2022-10-31T01:04:50;22.83;;;8.15;;
21527;SDS011;10925;49.102;-0.370;2022-10-31T01:07:17;19.13;;;7.82;;
21527;SDS011;10925;49.102;-0.370;2022-10-31T01:09:42;21.92;;;7.40;;
21527;SDS011;10925;49.102;-0.370;2022-10-31T01:12:09;26.55;;;7.97;;
21527;SDS011;10925;49.102;-0.370;2022-10-31T01:14:38;20.35;;;7.80;;
21527;SDS011;10925;49.102;-0.370;2022-10-31T01:17:04;22.63;;;7.10;;
21527;SDS011;10925;49.102;-0.370;2022-10-31T01:19:31;23.75;;;8.27;;
21527;SDS011;10925;49.102;-0.370;2022-10-31T01:21:57;22.67;;;7.80;;
21527;SDS011;10925;49.102;-0.370;2022-10-31T01:24:23;20.63;;;7.68;;
21527;SDS011;10925;49.102;-0.370;2022-10-31T01:26:50;24.77;;;8.18;;
21527;SDS011;10925;49.102;-0.370;2022-10-31T01:29:16;26.15;;;8.23;;
21527;SDS011;10925;49.102;-0.370;2022-10-31T01:31:43;26.13;;;8.32;;
21527;SDS011;10925;49.102;-0.370;2022-10-31T01:34:12;26.70;;;8.77;;
21527;SDS011;10925;49.102;-0.370;2022-10-31T01:36:39;28.35;;;8.82;;
21527;SDS011;10925;49.102;-0.370;2022-10-31T01:39:07;21.98;;;8.80;;
21527;SDS011;10925;49.102;-0.370;2022-10-31T01:41:35;26.05;;;9.27;;
21527;SDS011;10925;49.102;-0.370;2022-10-31T01:44:43;30.77;;;9.18;;
21527;SDS011;10925;49.102;-0.370;2022-10-31T01:46:49;32.53;;;9.77;;
21527;SDS011;10925;49.102;-0.370;2022-10-31T01:49:23;30.80;;;9.85;;
21527;SDS011;10925;49.102;-0.370;2022-10-31T01:51:54;33.67;;;10.05;;
21527;SDS011;10925;49.102;-0.370;2022-10-31T01:54:22;35.70;;;10.38;;
21527;SDS011;10925;49.102;-0.370;2022-10-31T01:56:50;38.22;;;10.70;;
21527;SDS011;10925;49.102;-0.370;2022-10-31T01:59:19;31.20;;;10.60;;
21527;SDS011;10925;49.102;-0.370;2022-10-31T02:01:47;26.08;;;9.50;;
21527;SDS011;10925;49.102;-0.370;2022-10-31T02:04:16;28.83;;;9.88;;
21527;SDS011;10925;49.102;-0.370;2022-10-31T02:09:25;28.08;;;9.60;;
21527;SDS011;10925;49.102;-0.370;2022-10-31T02:11:51;39.38;;;10.85;;
21527;SDS011;10925;49.102;-0.370;2022-10-31T02:14:20;38.00;;;11.10;;
21527;SDS011;10925;49.102;-0.370;2022-10-31T02:16:50;27.23;;;9.88;;
21527;SDS011;10925;49.102;-0.370;2022-10-31T02:19:28;33.50;;;10.88;;
21527;SDS011;10925;49.102;-0.370;2022-10-31T02:21:59;34.03;;;11.77;;
21527;SDS011;10925;49.102;-0.370;2022-10-31T02:24:40;29.15;;;10.88;;
21527;SDS011;10925;49.102;-0.370;2022-10-31T02:30:05;28.83;;;10.60;;
21527;SDS011;10925;49.102;-0.370;2022-10-31T02:40:22;36.33;;;9.10;;
21527;SDS011;10925;49.102;-0.370;2022-10-31T02:42:51;23.05;;;8.77;;
21527;SDS011;10925;49.102;-0.370;2022-10-31T02:45:28;27.38;;;9.48;;
21527;SDS011;10925;49.102;-0.370;2022-10-31T02:47:56;29.23;;;9.70;;
21527;SDS011;10925;49.102;-0.370;2022-10-31T02:50:26;24.67;;;8.18;;
21527;SDS011;10925;49.102;-0.370;2022-10-31T02:52:54;25.65;;;9.23;;
21527;SDS011;10925;49.102;-0.370;2022-10-31T02:58:00;31.83;;;8.75;;
21527;SDS011;10925;49.102;-0.370;2022-10-31T03:00:30;24.17;;;8.38;;
21527;SDS011;10925;49.102;-0.370;2022-10-31T03:03:13;23.40;;;8.38;;
21527;SDS011;10925;49.102;-0.370;2022-10-31T03:08:29;26.95;;;9.35;;
21527;SDS011;10925;49.102;-0.370;2022-10-31T03:11:05;27.17;;;9.25;;
21527;SDS011;10925;49.102;-0.370;2022-10-31T03:13:46;27.83;;;8.90;;
21527;SDS011;10925;49.102;-0.370;2022-10-31T03:18:51;36.45;;;10.40;;
21527;SDS011;10925;49.102;-0.370;2022-10-31T03:21:23;31.38;;;9.95;;
21527;SDS011;10925;49.102;-0.370;2022-10-31T03:23:50;34.10;;;11.27;;
21527;SDS011;10925;49.102;-0.370;2022-10-31T03:26:19;33.08;;;10.15;;
21527;SDS011;10925;49.102;-0.370;2022-10-31T03:28:49;32.70;;;10.93;;
21527;SDS011;10925;49.102;-0.370;2022-10-31T03:31:18;35.45;;;10.25;;
21527;SDS011;10925;49.102;-0.370;2022-10-31T03:33:47;35.72;;;10.77;;
21527;SDS011;10925;49.102;-0.370;2022-10-31T03:36:14;37.80;;;11.65;;
21527;SDS011;10925;49.102;-0.370;2022-10-31T03:41:46;35.45;;;10.55;;
21527;SDS011;10925;49.102;-0.370;2022-10-31T03:44:16;40.00;;;11.20;;
21527;SDS011;10925;49.102;-0.370;2022-10-31T03:46:47;41.72;;;10.63;;
21527;SDS011;10925;49.102;-0.370;2022-10-31T03:49:14;39.00;;;10.88;;
21527;SDS011;10925;49.102;-0.370;2022-10-31T03:54:38;37.35;;;10.48;;
21527;SDS011;10925;49.102;-0.370;2022-10-31T03:57:13;35.75;;;10.05;;
21527;SDS011;10925;49.102;-0.370;2022-10-31T03:59:41;44.33;;;11.57;;
21527;SDS011;10925;49.102;-0.370;2022-10-31T04:02:13;38.80;;;11.35;;
21527;SDS011;10925;49.102;-0.370;2022-10-31T04:04:39;37.50;;;11.48;;
21527;SDS011;10925;49.102;-0.370;2022-10-31T04:07:06;42.83;;;12.40;;
21527;SDS011;10925;49.102;-0.370;2022-10-31T04:09:35;38.88;;;11.38;;
21527;SDS011;10925;49.102;-0.370;2022-10-31T04:12:03;33.13;;;10.95;;
21527;SDS011;10925;49.102;-0.370;2022-10-31T04:14:31;31.38;;;10.95;;
21527;SDS011;10925;49.102;-0.370;2022-10-31T04:17:00;32.60;;;10.13;;
21527;SDS011;10925;49.102;-0.370;2022-10-31T04:19:34;30.73;;;9.73;;
21527;SDS011;10925;49.102;-0.370;2022-10-31T04:22:01;33.72;;;10.20;;
21527;SDS011;10925;49.102;-0.370;2022-10-31T04:24:28;24.65;;;9.65;;
21527;SDS011;10925;49.102;-0.370;2022-10-31T04:26:54;27.20;;;9.25;;
21527;SDS011;10925;49.102;-0.370;2022-10-31T04:29:19;26.95;;;9.50;;
21527;SDS011;10925;49.102;-0.370;2022-10-31T04:31:46;30.67;;;9.00;;
21527;SDS011;10925;49.102;-0.370;2022-10-31T04:34:13;29.75;;;9.23;;
21527;SDS011;10925;49.102;-0.370;2022-10-31T04:36:40;26.10;;;8.93;;
21527;SDS011;10925;49.102;-0.370;2022-10-31T04:39:07;28.75;;;8.90;;
21527;SDS011;10925;49.102;-0.370;2022-10-31T04:41:33;31.55;;;9.40;;
21527;SDS011;10925;49.102;-0.370;2022-10-31T04:44:03;25.42;;;8.52;;
21527;SDS011;10925;49.102;-0.370;2022-10-31T04:46:29;24.65;;;8.40;;
21527;SDS011;10925;49.102;-0.370;2022-10-31T04:48:56;22.77;;;7.40;;
21527;SDS011;10925;49.102;-0.370;2022-10-31T04:51:23;29.65;;;8.20;;
21527;SDS011;10925;49.102;-0.370;2022-10-31T04:53:50;18.98;;;7.25;;
21527;SDS011;10925;49.102;-0.370;2022-10-31T04:56:17;19.10;;;7.55;;
21527;SDS011;10925;49.102;-0.370;2022-10-31T04:58:46;16.85;;;7.43;;
21527;SDS011;10925;49.102;-0.370;2022-10-31T05:01:12;19.80;;;7.20;;
21527;SDS011;10925;49.102;-0.370;2022-10-31T05:03:39;21.45;;;8.07;;
21527;SDS011;10925;49.102;-0.370;2022-10-31T05:06:06;19.17;;;8.18;;
21527;SDS011;10925;49.102;-0.370;2022-10-31T05:08:34;29.75;;;8.68;;
21527;SDS011;10925;49.102;-0.370;2022-10-31T05:11:01;25.45;;;8.98;;
21527;SDS011;10925;49.102;-0.370;2022-10-31T05:13:30;25.33;;;8.35;;
21527;SDS011;10925;49.102;-0.370;2022-10-31T05:16:12;26.17;;;8.57;;
21527;SDS011;10925;49.102;-0.370;2022-10-31T05:18:37;26.95;;;8.70;;
21527;SDS011;10925;49.102;-0.370;2022-10-31T05:21:03;23.30;;;9.30;;
21527;SDS011;10925;49.102;-0.370;2022-10-31T05:23:28;25.55;;;9.82;;
21527;SDS011;10925;49.102;-0.370;2022-10-31T05:25:54;28.67;;;9.68;;
21527;SDS011;10925;49.102;-0.370;2022-10-31T05:28:19;31.45;;;10.55;;
21527;SDS011;10925;49.102;-0.370;2022-10-31T05:30:46;25.38;;;9.43;;
21527;SDS011;10925;49.102;-0.370;2022-10-31T05:33:14;30.38;;;9.80;;
21527;SDS011;10925;49.102;-0.370;2022-10-31T05:35:59;21.25;;;9.30;;
21527;SDS011;10925;49.102;-0.370;2022-10-31T05:38:35;22.30;;;8.87;;
21527;SDS011;10925;49.102;-0.370;2022-10-31T05:41:10;24.08;;;9.13;;
21527;SDS011;10925;49.102;-0.370;2022-10-31T05:43:41;19.80;;;9.07;;
21527;SDS011;10925;49.102;-0.370;2022-10-31T05:46:07;28.23;;;10.48;;
21527;SDS011;10925;49.102;-0.370;2022-10-31T05:48:34;22.50;;;10.00;;
21527;SDS011;10925;49.102;-0.370;2022-10-31T05:51:23;29.05;;;10.90;;
21527;SDS011;10925;49.102;-0.370;2022-10-31T05:53:50;29.15;;;10.98;;
21527;SDS011;10925;49.102;-0.370;2022-10-31T05:56:16;27.10;;;10.95;;
21527;SDS011;10925;49.102;-0.370;2022-10-31T05:58:43;28.98;;;11.75;;
21527;SDS011;10925;49.102;-0.370;2022-10-31T06:01:12;27.55;;;10.93;;
21527;SDS011;10925;49.102;-0.370;2022-10-31T06:03:43;28.73;;;10.63;;
21527;SDS011;10925;49.102;-0.370;2022-10-31T06:06:10;29.65;;;11.27;;
21527;SDS011;10925;49.102;-0.370;2022-10-31T06:08:37;30.55;;;11.35;;
21527;SDS011;10925;49.102;-0.370;2022-10-31T06:11:02;29.25;;;11.73;;
21527;SDS011;10925;49.102;-0.370;2022-10-31T06:13:28;34.05;;;12.68;;
21527;SDS011;10925;49.102;-0.370;2022-10-31T06:15:55;30.02;;;12.65;;
21527;SDS011;10925;49.102;-0.370;2022-10-31T06:18:22;30.83;;;12.18;;
21527;SDS011;10925;49.102;-0.370;2022-10-31T06:20:49;32.88;;;11.60;;
21527;SDS011;10925;49.102;-0.370;2022-10-31T06:23:15;27.15;;;10.55;;
21527;SDS011;10925;49.102;-0.370;2022-10-31T06:25:52;35.97;;;11.07;;
21527;SDS011;10925;49.102;-0.370;2022-10-31T06:28:19;28.08;;;11.40;;
21527;SDS011;10925;49.102;-0.370;2022-10-31T06:31:05;37.35;;;13.48;;
21527;SDS011;10925;49.102;-0.370;2022-10-31T06:33:33;29.98;;;10.85;;
21527;SDS011;10925;49.102;-0.370;2022-10-31T06:36:00;23.50;;;10.23;;
21527;SDS011;10925;49.102;-0.370;2022-10-31T06:38:30;25.55;;;10.40;;
21527;SDS011;10925;49.102;-0.370;2022-10-31T06:41:00;26.38;;;10.98;;
21527;SDS011;10925;49.102;-0.370;2022-10-31T06:43:26;27.33;;;11.90;;
21527;SDS011;10925;49.102;-0.370;2022-10-31T07:03:14;27.63;;;11.40;;
21527;SDS011;10925;49.102;-0.370;2022-10-31T07:05:43;29.10;;;10.65;;
21527;SDS011;10925;49.102;-0.370;2022-10-31T07:08:12;27.48;;;10.80;;
21527;SDS011;10925;49.102;-0.370;2022-10-31T07:10:39;31.38;;;11.55;;
21527;SDS011;10925;49.102;-0.370;2022-10-31T07:13:09;30.33;;;11.48;;
21527;SDS011;10925;49.102;-0.370;2022-10-31T07:15:37;32.97;;;12.30;;
21527;SDS011;10925;49.102;-0.370;2022-10-31T07:18:08;35.85;;;12.15;;
21527;SDS011;10925;49.102;-0.370;2022-10-31T07:20:37;34.72;;;12.18;;
21527;SDS011;10925;49.102;-0.370;2022-10-31T07:23:04;34.13;;;12.45;;
21527;SDS011;10925;49.102;-0.370;2022-10-31T07:25:32;35.28;;;12.55;;
21527;SDS011;10925;49.102;-0.370;2022-10-31T07:27:58;33.97;;;12.88;;
21527;SDS011;10925;49.102;-0.370;2022-10-31T07:30:23;36.03;;;12.98;;
21527;SDS011;10925;49.102;-0.370;2022-10-31T07:32:50;33.70;;;13.23;;
21527;SDS011;10925;49.102;-0.370;2022-10-31T07:35:17;32.53;;;12.88;;
21527;SDS011;10925;49.102;-0.370;2022-10-31T07:37:44;33.90;;;12.55;;
21527;SDS011;10925;49.102;-0.370;2022-10-31T07:40:14;26.05;;;10.80;;
21527;SDS011;10925;49.102;-0.370;2022-10-31T07:42:41;19.77;;;9.18;;
21527;SDS011;10925;49.102;-0.370;2022-10-31T07:45:29;23.08;;;9.90;;
21527;SDS011;10925;49.102;-0.370;2022-10-31T07:47:55;20.52;;;9.38;;
21527;SDS011;10925;49.102;-0.370;2022-10-31T07:50:25;18.90;;;9.18;;
21527;SDS011;10925;49.102;-0.370;2022-10-31T07:53:13;17.98;;;9.25;;
21527;SDS011;10925;49.102;-0.370;2022-10-31T07:55:39;19.65;;;8.52;;
21527;SDS011;10925;49.102;-0.370;2022-10-31T07:58:09;19.20;;;8.63;;
21527;SDS011;10925;49.102;-0.370;2022-10-31T08:00:38;17.52;;;7.68;;
21527;SDS011;10925;49.102;-0.370;2022-10-31T08:03:10;18.35;;;7.82;;
21527;SDS011;10925;49.102;-0.370;2022-10-31T08:05:36;13.05;;;7.28;;
21527;SDS011;10925;49.102;-0.370;2022-10-31T08:08:33;11.98;;;6.28;;
21527;SDS011;10925;49.102;-0.370;2022-10-31T08:10:58;14.80;;;7.60;;
21527;SDS011;10925;49.102;-0.370;2022-10-31T08:13:24;16.60;;;7.15;;
21527;SDS011;10925;49.102;-0.370;2022-10-31T08:15:52;14.50;;;6.80;;
21527;SDS011;10925;49.102;-0.370;2022-10-31T08:18:23;12.48;;;7.10;;
21527;SDS011;10925;49.102;-0.370;2022-10-31T08:20:51;13.43;;;7.13;;
21527;SDS011;10925;49.102;-0.370;2022-10-31T08:23:18;12.45;;;7.35;;
21527;SDS011;10925;49.102;-0.370;2022-10-31T08:25:48;11.27;;;6.65;;
21527;SDS011;10925;49.102;-0.370;2022-10-31T08:28:15;12.75;;;7.05;;
21527;SDS011;10925;49.102;-0.370;2022-10-31T08:30:45;11.05;;;6.25;;
21527;SDS011;10925;49.102;-0.370;2022-10-31T08:33:29;9.43;;;6.10;;
21527;SDS011;10925;49.102;-0.370;2022-10-31T08:36:15;9.63;;;5.75;;
21527;SDS011;10925;49.102;-0.370;2022-10-31T08:38:48;10.20;;;5.90;;
21527;SDS011;10925;49.102;-0.370;2022-10-31T08:41:17;10.85;;;6.10;;
21527;SDS011;10925;49.102;-0.370;2022-10-31T08:43:44;9.35;;;5.63;;
21527;SDS011;10925;49.102;-0.370;2022-10-31T08:46:12;10.68;;;5.82;;
21527;SDS011;10925;49.102;-0.370;2022-10-31T08:48:40;11.18;;;6.25;;
21527;SDS011;10925;49.102;-0.370;2022-10-31T08:51:08;11.60;;;6.53;;
21527;SDS011;10925;49.102;-0.370;2022-10-31T08:53:37;9.52;;;6.05;;
21527;SDS011;10925;49.102;-0.370;2022-10-31T08:56:37;9.73;;;6.70;;
21527;SDS011;10925;49.102;-0.370;2022-10-31T08:59:03;9.00;;;5.85;;
21527;SDS011;10925;49.102;-0.370;2022-10-31T09:01:28;9.45;;;6.80;;
21527;SDS011;10925;49.102;-0.370;2022-10-31T09:03:57;10.98;;;6.53;;
21527;SDS011;10925;49.102;-0.370;2022-10-31T09:06:24;10.00;;;6.60;;
21527;SDS011;10925;49.102;-0.370;2022-10-31T09:08:51;10.20;;;5.97;;
21527;SDS011;10925;49.102;-0.370;2022-10-31T09:11:18;9.02;;;5.93;;
21527;SDS011;10925;49.102;-0.370;2022-10-31T09:14:04;9.55;;;6.78;;
21527;SDS011;10925;49.102;-0.370;2022-10-31T09:16:31;11.68;;;6.95;;
21527;SDS011;10925;49.102;-0.370;2022-10-31T09:18:58;12.90;;;6.93;;
21527;SDS011;10925;49.102;-0.370;2022-10-31T09:21:24;14.05;;;6.75;;
21527;SDS011;10925;49.102;-0.370;2022-10-31T09:23:52;18.20;;;7.00;;
21527;SDS011;10925;49.102;-0.370;2022-10-31T09:26:20;12.10;;;6.07;;
21527;SDS011;10925;49.102;-0.370;2022-10-31T09:29:06;10.73;;;5.40;;
21527;SDS011;10925;49.102;-0.370;2022-10-31T09:31:33;8.63;;;5.15;;
21527;SDS011;10925;49.102;-0.370;2022-10-31T09:34:05;10.63;;;5.15;;
21527;SDS011;10925;49.102;-0.370;2022-10-31T09:36:35;9.27;;;5.30;;
21527;SDS011;10925;49.102;-0.370;2022-10-31T09:39:02;8.30;;;5.68;;
21527;SDS011;10925;49.102;-0.370;2022-10-31T09:44:44;5.78;;;4.38;;
21527;SDS011;10925;49.102;-0.370;2022-10-31T09:50:19;5.82;;;4.90;;
21527;SDS011;10925;49.102;-0.370;2022-10-31T09:53:03;7.38;;;4.78;;
21527;SDS011;10925;49.102;-0.370;2022-10-31T09:55:35;5.32;;;4.63;;
21527;SDS011;10925;49.102;-0.370;2022-10-31T09:58:04;4.78;;;4.07;;
21527;SDS011;10925;49.102;-0.370;2022-10-31T10:00:31;7.40;;;4.30;;
21527;SDS011;10925;49.102;-0.370;2022-10-31T10:03:24;5.20;;;3.90;;
21527;SDS011;10925;49.102;-0.370;2022-10-31T10:06:01;5.38;;;3.53;;
21527;SDS011;10925;49.102;-0.370;2022-10-31T10:08:31;3.45;;;2.60;;
21527;SDS011;10925;49.102;-0.370;2022-10-31T10:11:44;3.97;;;2.22;;
21527;SDS011;10925;49.102;-0.370;2022-10-31T10:14:35;1.98;;;1.52;;
21527;SDS011;10925;49.102;-0.370;2022-10-31T10:22:08;2.30;;;1.27;;
21527;SDS011;10925;49.102;-0.370;2022-10-31T10:32:31;2.83;;;1.27;;
21527;SDS011;10925;49.102;-0.370;2022-10-31T10:37:50;4.68;;;1.50;;
21527;SDS011;10925;49.102;-0.370;2022-10-31T10:40:17;4.38;;;1.38;;
21527;SDS011;10925;49.102;-0.370;2022-10-31T10:42:50;2.45;;;1.20;;
21527;SDS011;10925;49.102;-0.370;2022-10-31T10:45:38;2.10;;;1.17;;
21527;SDS011;10925;49.102;-0.370;2022-10-31T10:50:51;4.70;;;1.52;;
21527;SDS011;10925;49.102;-0.370;2022-10-31T10:53:33;3.05;;;1.27;;
21527;SDS011;10925;49.102;-0.370;2022-10-31T10:58:30;4.93;;;1.85;;
21527;SDS011;10925;49.102;-0.370;2022-10-31T11:00:55;2.40;;;1.88;;
21527;SDS011;10925;49.102;-0.370;2022-10-31T11:03:22;5.90;;;1.65;;
21527;SDS011;10925;49.102;-0.370;2022-10-31T11:05:58;3.65;;;1.63;;
21527;SDS011;10925;49.102;-0.370;2022-10-31T11:08:31;5.43;;;1.60;;
21527;SDS011;10925;49.102;-0.370;2022-10-31T11:13:28;2.78;;;1.77;;
21527;SDS011;10925;49.102;-0.370;2022-10-31T11:18:24;3.58;;;2.17;;
21527;SDS011;10925;49.102;-0.370;2022-10-31T11:20:56;5.18;;;2.20;;
21527;SDS011;10925;49.102;-0.370;2022-10-31T11:23:24;3.35;;;2.03;;
21527;SDS011;10925;49.102;-0.370;2022-10-31T11:25:53;6.68;;;2.13;;
21527;SDS011;10925;49.102;-0.370;2022-10-31T11:28:21;4.88;;;2.30;;
21527;SDS011;10925;49.102;-0.370;2022-10-31T11:30:49;3.85;;;2.03;;
21527;SDS011;10925;49.102;-0.370;2022-10-31T11:33:27;5.65;;;2.60;;
21527;SDS011;10925;49.102;-0.370;2022-10-31T11:35:54;5.90;;;2.53;;
21527;SDS011;10925;49.102;-0.370;2022-10-31T11:38:32;5.35;;;3.10;;
21527;SDS011;10925;49.102;-0.370;2022-10-31T11:41:12;11.52;;;3.78;;
21527;SDS011;10925;49.102;-0.370;2022-10-31T11:43:40;6.20;;;3.60;;
21527;SDS011;10925;49.102;-0.370;2022-10-31T11:46:13;8.32;;;3.70;;
21527;SDS011;10925;49.102;-0.370;2022-10-31T11:48:45;6.57;;;3.72;;
21527;SDS011;10925;49.102;-0.370;2022-10-31T11:51:11;11.18;;;4.60;;
21527;SDS011;10925;49.102;-0.370;2022-10-31T11:53:38;10.52;;;4.20;;
21527;SDS011;10925;49.102;-0.370;2022-10-31T11:56:14;10.52;;;4.32;;
21527;SDS011;10925;49.102;-0.370;2022-10-31T11:58:41;7.97;;;4.28;;
21527;SDS011;10925;49.102;-0.370;2022-10-31T12:01:08;8.57;;;4.40;;
21527;SDS011;10925;49.102;-0.370;2022-10-31T12:03:54;17.45;;;5.15;;
21527;SDS011;10925;49.102;-0.370;2022-10-31T12:06:34;11.10;;;4.60;;
21527;SDS011;10925;49.102;-0.370;2022-10-31T12:09:07;8.13;;;4.75;;
21527;SDS011;10925;49.102;-0.370;2022-10-31T12:16:56;10.88;;;5.00;;
21527;SDS011;10925;49.102;-0.370;2022-10-31T12:32:08;9.60;;;4.97;;
21527;SDS011;10925;49.102;-0.370;2022-10-31T12:47:52;11.60;;;5.93;;
21527;SDS011;10925;49.102;-0.370;2022-10-31T12:50:31;9.98;;;4.95;;
21527;SDS011;10925;49.102;-0.370;2022-10-31T12:56:18;11.77;;;5.60;;
21527;SDS011;10925;49.102;-0.370;2022-10-31T12:58:46;14.70;;;6.10;;
21527;SDS011;10925;49.102;-0.370;2022-10-31T13:01:18;10.70;;;5.95;;
21527;SDS011;10925;49.102;-0.370;2022-10-31T13:03:48;16.75;;;5.97;;
21527;SDS011;10925;49.102;-0.370;2022-10-31T13:06:25;9.15;;;5.60;;
21527;SDS011;10925;49.102;-0.370;2022-10-31T13:08:54;9.98;;;5.65;;
21527;SDS011;10925;49.102;-0.370;2022-10-31T13:11:22;10.70;;;5.40;;
21527;SDS011;10925;49.102;-0.370;2022-10-31T13:16:35;14.25;;;5.93;;
21527;SDS011;10925;49.102;-0.370;2022-10-31T13:24:35;11.77;;;6.05;;
21527;SDS011;10925;49.102;-0.370;2022-10-31T13:27:07;13.68;;;6.00;;
21527;SDS011;10925;49.102;-0.370;2022-10-31T13:29:37;17.10;;;6.38;;
21527;SDS011;10925;49.102;-0.370;2022-10-31T13:32:06;14.88;;;5.93;;
21527;SDS011;10925;49.102;-0.370;2022-10-31T13:34:34;11.70;;;6.43;;
21527;SDS011;10925;49.102;-0.370;2022-10-31T13:44:52;11.55;;;6.20;;
21527;SDS011;10925;49.102;-0.370;2022-10-31T13:47:24;13.07;;;6.95;;
21527;SDS011;10925;49.102;-0.370;2022-10-31T13:49:49;13.15;;;6.65;;
21527;SDS011;10925;49.102;-0.370;2022-10-31T13:52:24;17.40;;;7.30;;
21527;SDS011;10925;49.102;-0.370;2022-10-31T13:54:52;18.42;;;7.10;;
21527;SDS011;10925;49.102;-0.370;2022-10-31T13:57:26;13.15;;;6.88;;
21527;SDS011;10925;49.102;-0.370;2022-10-31T13:59:54;15.00;;;6.78;;
21527;SDS011;10925;49.102;-0.370;2022-10-31T14:02:25;14.38;;;7.28;;
21527;SDS011;10925;49.102;-0.370;2022-10-31T14:04:58;11.68;;;7.18;;
21527;SDS011;10925;49.102;-0.370;2022-10-31T14:07:24;13.57;;;7.30;;
21527;SDS011;10925;49.102;-0.370;2022-10-31T14:10:02;17.40;;;7.28;;
21527;SDS011;10925;49.102;-0.370;2022-10-31T14:12:31;15.98;;;7.68;;
21527;SDS011;10925;49.102;-0.370;2022-10-31T14:15:02;15.80;;;7.00;;
21527;SDS011;10925;49.102;-0.370;2022-10-31T14:17:33;14.43;;;6.90;;
21527;SDS011;10925;49.102;-0.370;2022-10-31T14:22:38;13.07;;;6.85;;
21527;SDS011;10925;49.102;-0.370;2022-10-31T14:27:50;16.98;;;7.05;;
21527;SDS011;10925;49.102;-0.370;2022-10-31T14:30:19;12.68;;;6.72;;
21527;SDS011;10925;49.102;-0.370;2022-10-31T14:32:49;13.90;;;6.90;;
21527;SDS011;10925;49.102;-0.370;2022-10-31T14:35:17;17.60;;;6.97;;
21527;SDS011;10925;49.102;-0.370;2022-10-31T14:48:05;13.70;;;7.45;;
21527;SDS011;10925;49.102;-0.370;2022-10-31T14:50:41;15.63;;;7.63;;
21527;SDS011;10925;49.102;-0.370;2022-10-31T14:53:12;16.20;;;7.40;;
21527;SDS011;10925;49.102;-0.370;2022-10-31T14:55:45;15.20;;;7.28;;
21527;SDS011;10925;49.102;-0.370;2022-10-31T14:58:13;16.27;;;7.55;;
21527;SDS011;10925;49.102;-0.370;2022-10-31T15:00:42;13.63;;;7.68;;
21527;SDS011;10925;49.102;-0.370;2022-10-31T15:05:34;16.65;;;7.63;;
21527;SDS011;10925;49.102;-0.370;2022-10-31T15:08:13;11.48;;;6.82;;
21527;SDS011;10925;49.102;-0.370;2022-10-31T15:10:44;15.85;;;7.45;;
21527;SDS011;10925;49.102;-0.370;2022-10-31T15:13:17;11.35;;;6.68;;
21527;SDS011;10925;49.102;-0.370;2022-10-31T15:15:45;15.52;;;7.28;;
21527;SDS011;10925;49.102;-0.370;2022-10-31T15:18:19;11.90;;;6.82;;
21527;SDS011;10925;49.102;-0.370;2022-10-31T15:20:46;17.98;;;8.55;;
21527;SDS011;10925;49.102;-0.370;2022-10-31T15:23:17;10.98;;;7.20;;
21527;SDS011;10925;49.102;-0.370;2022-10-31T15:25:45;13.77;;;7.57;;
21527;SDS011;10925;49.102;-0.370;2022-10-31T15:28:14;15.07;;;8.35;;
21527;SDS011;10925;49.102;-0.370;2022-10-31T15:30:48;14.68;;;8.68;;
21527;SDS011;10925;49.102;-0.370;2022-10-31T15:33:19;16.73;;;7.57;;
21527;SDS011;10925;49.102;-0.370;2022-10-31T15:35:54;17.45;;;7.93;;
21527;SDS011;10925;49.102;-0.370;2022-10-31T15:38:21;16.48;;;7.80;;
21527;SDS011;10925;49.102;-0.370;2022-10-31T15:40:55;16.63;;;7.43;;
21527;SDS011;10925;49.102;-0.370;2022-10-31T15:43:23;17.70;;;8.00;;
21527;SDS011;10925;49.102;-0.370;2022-10-31T15:45:50;19.60;;;8.18;;
21527;SDS011;10925;49.102;-0.370;2022-10-31T15:48:23;14.75;;;7.47;;
21527;SDS011;10925;49.102;-0.370;2022-10-31T15:53:18;20.17;;;8.77;;
21527;SDS011;10925;49.102;-0.370;2022-10-31T15:55:48;13.48;;;8.70;;
21527;SDS011;10925;49.102;-0.370;2022-10-31T15:58:16;16.25;;;8.90;;
21527;SDS011;10925;49.102;-0.370;2022-10-31T16:00:43;19.48;;;9.63;;
21527;SDS011;10925;49.102;-0.370;2022-10-31T16:05:44;15.43;;;9.57;;
21527;SDS011;10925;49.102;-0.370;2022-10-31T16:10:55;13.55;;;9.25;;
21527;SDS011;10925;49.102;-0.370;2022-10-31T16:13:26;20.60;;;9.93;;
21527;SDS011;10925;49.102;-0.370;2022-10-31T16:16:12;17.38;;;9.93;;
21527;SDS011;10925;49.102;-0.370;2022-10-31T16:18:39;13.77;;;9.65;;
21527;SDS011;10925;49.102;-0.370;2022-10-31T16:21:05;16.77;;;9.90;;
21527;SDS011;10925;49.102;-0.370;2022-10-31T16:23:32;17.17;;;9.93;;
21527;SDS011;10925;49.102;-0.370;2022-10-31T16:25:59;19.73;;;11.68;;
21527;SDS011;10925;49.102;-0.370;2022-10-31T16:28:26;15.18;;;10.27;;
21527;SDS011;10925;49.102;-0.370;2022-10-31T16:30:59;21.90;;;10.43;;
21527;SDS011;10925;49.102;-0.370;2022-10-31T16:33:31;20.73;;;10.25;;
21527;SDS011;10925;49.102;-0.370;2022-10-31T16:35:58;16.98;;;10.05;;
21527;SDS011;10925;49.102;-0.370;2022-10-31T16:38:41;23.27;;;12.35;;
21527;SDS011;10925;49.102;-0.370;2022-10-31T16:41:08;29.52;;;12.55;;
21527;SDS011;10925;49.102;-0.370;2022-10-31T16:43:34;15.40;;;9.55;;
21527;SDS011;10925;49.102;-0.370;2022-10-31T16:46:01;14.48;;;8.52;;
21527;SDS011;10925;49.102;-0.370;2022-10-31T16:48:27;17.98;;;8.77;;
21527;SDS011;10925;49.102;-0.370;2022-10-31T16:50:54;17.80;;;9.43;;
21527;SDS011;10925;49.102;-0.370;2022-10-31T16:53:20;15.70;;;8.13;;
21527;SDS011;10925;49.102;-0.370;2022-10-31T16:55:50;12.35;;;7.85;;
21527;SDS011;10925;49.102;-0.370;2022-10-31T16:58:20;9.27;;;6.30;;
21527;SDS011;10925;49.102;-0.370;2022-10-31T17:00:47;8.75;;;6.75;;
21527;SDS011;10925;49.102;-0.370;2022-10-31T17:03:12;12.65;;;6.95;;
21527;SDS011;10925;49.102;-0.370;2022-10-31T17:05:39;14.07;;;8.13;;
21527;SDS011;10925;49.102;-0.370;2022-10-31T17:08:05;13.10;;;5.95;;
21527;SDS011;10925;49.102;-0.370;2022-10-31T17:10:32;12.32;;;6.38;;
21527;SDS011;10925;49.102;-0.370;2022-10-31T17:12:59;12.52;;;6.78;;